Latest Weather Observations for Gabo Island

IDN60801

Issued at 10:32 pm EST Tuesday 25 April 2017 (issued every 30 minutes, with the page automatically refreshed every 10 minutes)

About weather observations | Map of weather stations | Latest weather observations for NSW | Other Formats
Station Details ID: 084016 Name: GABO ISLAND LIGHTHOUSE Lat: -37.57 Lon: 149.92 Height: 15.2 m
Data from the previous 72 hours. | See also: Recent months at Gabo Island
Date/Time
EST
Temp
°C
App
Temp
°C
Dew
Point
°C
Rel
Hum
%
Delta-T
°C
Wind Press
QNH
hPa
Press
MSL
hPa
Rain since
9am
mm
Dir  Spd
km/h
Gust
km/h
Spd
kts
Gust
kts
25/10:30pm 16.2 13.0 14.3 88 1.1 W 24 30 13 16 1005.5 - 6.2
25/10:00pm 16.0 14.2 14.4 90 0.9 WNW 17 24 9 13 1005.3 - 6.2
25/09:30pm 16.4 13.7 14.7 90 1.0 W 22 30 12 16 1005.5 - 6.2
25/09:00pm 16.5 12.3 14.6 88 1.1 W 30 39 16 21 1005.4 1005.4 6.2
25/08:30pm 16.6 12.6 15.1 91 0.9 W 30 35 16 19 1005.3 - 6.2
25/08:00pm 16.9 12.7 14.6 86 1.3 W 30 35 16 19 1005.5 - 6.2
25/07:30pm 16.9 12.7 14.6 86 1.3 W 30 39 16 21 1005.4 - 6.2
25/07:00pm 17.1 13.4 15.0 87 1.2 W 28 35 15 19 1005.1 - 6.2
25/06:30pm 17.8 13.0 14.1 79 2.1 W 32 39 17 21 1004.6 - 6.2
25/06:00pm 17.7 15.1 16.0 90 1.0 W 24 33 13 18 1004.1 1004.1 6.2
25/05:30pm 17.8 17.9 16.5 92 0.8 WNW 11 15 6 8 1003.4 - 6.2
25/05:00pm 18.2 18.2 17.2 94 0.6 W 13 19 7 10 1002.9 - 6.2
25/04:30pm 18.1 18.4 17.1 94 0.6 WNW 11 15 6 8 1002.8 - 6.2
25/04:00pm 18.5 18.6 17.4 93 0.7 W 13 17 7 9 1002.6 - 6.2
25/03:30pm 18.7 18.5 17.7 94 0.6 NNE 15 17 8 9 1003.0 - 6.2
25/03:00pm 18.2 17.8 17.2 94 0.6 NNE 15 19 8 10 1003.5 1003.5 6.2
25/02:30pm 17.9 16.9 16.7 93 0.7 N 17 20 9 11 1004.0 - 6.2
25/02:00pm 17.6 16.5 16.4 93 0.7 N 17 26 9 14 1004.3 - 5.8
25/01:30pm 17.1 16.1 16.6 97 0.3 N 17 22 9 12 1004.5 - 5.2
25/01:00pm 17.3 15.9 15.6 90 1.0 N 17 20 9 11 1005.4 - 4.4
25/12:30pm 17.5 17.0 16.0 91 0.9 N 13 17 7 9 1005.7 - 3.4
25/12:00pm 17.5 17.5 16.2 92 0.8 N 11 15 6 8 1006.1 1006.1 2.4
25/11:30am 17.4 17.5 16.6 95 0.5 N 11 15 6 8 1006.5 - 2.0
25/11:00am 17.3 14.4 15.2 87 1.2 NNE 24 28 13 15 1006.9 - 1.8
25/10:30am 17.7 15.3 15.5 87 1.3 NNE 22 28 12 15 1007.3 - 1.2
25/10:00am 17.5 14.8 15.5 88 1.2 NE 24 28 13 15 1007.8 - 1.0
25/09:30am 17.5 15.7 15.6 89 1.1 NNE 19 24 10 13 1008.0 - 0.4
25/09:00am 17.4 15.6 15.9 91 0.9 NE 20 24 11 13 1008.4 1008.4 1.2
25/08:30am 18.0 15.0 14.9 82 1.8 NNE 24 28 13 15 1008.4 - 0.6
25/08:00am 18.5 16.7 14.5 77 2.3 N 17 22 9 12 1008.8 - 0.2
25/07:30am 18.5 16.4 14.7 78 2.2 NNE 19 24 10 13 1008.5 - 0.0
25/07:00am 18.9 15.7 14.2 74 2.7 NNE 24 32 13 17 1008.3 - 0.0
25/06:30am 18.6 17.2 14.5 77 2.4 NE 15 17 8 9 1008.3 - 0.0
25/06:00am 18.7 15.7 14.9 78 2.2 NNE 24 30 13 16 1008.4 1008.3 0.0
25/05:30am 17.7 16.3 15.5 87 1.3 NNE 17 24 9 13 1008.8 - 0.0
25/05:00am 17.1 14.4 13.4 79 2.1 N 20 26 11 14 1009.2 - 0.0
25/04:30am 17.9 14.8 15.7 87 1.3 NNE 26 33 14 18 1009.2 - 0.0
25/04:00am 17.7 15.0 15.5 87 1.3 NNE 24 30 13 16 1009.6 - 0.0
25/03:30am 17.7 15.8 15.3 86 1.4 N 19 20 10 11 1010.3 - 0.0
25/03:00am 18.0 15.6 15.3 84 1.6 NNE 22 26 12 14 1010.6 1010.7 0.0
25/02:30am 18.0 15.8 16.0 88 1.2 NNE 22 28 12 15 1011.1 - 0.0
25/02:00am 17.9 16.6 15.7 87 1.3 N 17 20 9 11 1011.8 - 0.0
25/01:30am 18.1 16.8 15.7 86 1.4 NNE 17 28 9 15 1012.2 - 0.0
25/01:00am 17.9 16.1 15.9 88 1.2 NNE 20 24 11 13 1012.7 - 0.0
25/12:30am 18.0 16.1 15.8 87 1.3 N 20 24 11 13 1013.3 - 0.0
25/12:00am 18.4 15.7 15.7 84 1.6 NNE 24 28 13 15 1013.6 1013.6 0.0
 
Date/Time
EST
Temp
°C
App
Temp
°C
Dew
Point
°C
Rel
Hum
%
Delta-T
°C
Wind Press
QNH
hPa
Press
MSL
hPa
Rain since
9am
mm
Dir  Spd
km/h
Gust
km/h
Spd
kts
Gust
kts
24/11:30pm 18.7 16.1 16.0 84 1.6 NNE 24 30 13 16 1014.1 - 0.0
24/11:00pm 18.7 15.6 15.5 81 1.9 NNE 26 32 14 17 1014.4 - 0.0
24/10:30pm 18.8 15.6 16.3 85 1.5 N 28 33 15 18 1014.7 - 0.0
24/10:00pm 18.7 15.1 16.2 85 1.5 N 30 35 16 19 1015.1 - 0.0
24/09:30pm 18.5 16.8 16.3 87 1.3 NNE 20 28 11 15 1015.5 - 0.0
24/09:00pm 18.9 16.7 16.9 88 1.2 NNE 24 28 13 15 1015.5 1015.5 0.0
24/08:30pm 18.8 16.6 16.8 88 1.2 NNE 24 30 13 16 1015.7 - 0.0
24/08:00pm 19.1 16.5 16.8 86 1.4 NNE 26 32 14 17 1015.8 - 0.0
24/07:30pm 19.0 15.4 16.3 84 1.6 NNE 30 35 16 19 1015.9 - 0.0
24/07:00pm 18.9 15.7 16.2 84 1.6 NNE 28 32 15 17 1016.0 - 0.0
24/06:30pm 19.1 16.3 16.4 84 1.6 NNE 26 30 14 16 1016.0 - 0.0
24/06:00pm 19.5 16.8 16.7 84 1.7 NNE 26 32 14 17 1016.0 1016.0 0.0
24/05:30pm 19.7 17.0 16.7 83 1.8 NNE 26 32 14 17 1016.0 - 0.0
24/05:00pm 20.1 17.5 16.8 81 2.0 NNE 26 32 14 17 1016.2 - 0.0
24/04:30pm 20.5 17.8 16.7 79 2.3 NNE 26 32 14 17 1016.1 - 0.0
24/04:00pm 20.9 17.7 16.2 74 2.8 NNE 28 32 15 17 1016.1 - 0.0
24/03:30pm 21.1 18.4 16.6 75 2.7 NNE 26 32 14 17 1016.2 - 0.0
24/03:00pm 20.8 17.9 16.1 74 2.8 NNE 26 30 14 16 1016.4 - 0.0
24/02:30pm 21.1 18.5 16.8 76 2.6 NNE 26 28 14 15 1016.6 - 0.0
24/02:00pm 21.5 18.8 16.5 73 3.0 NE 26 30 14 16 1017.0 - 0.0
24/01:30pm 21.4 18.6 16.3 72 3.1 NE 26 30 14 16 1017.2 - 0.0
24/01:00pm 21.2 18.3 16.2 73 3.0 NE 26 30 14 16 1017.6 - 0.0
24/12:30pm 21.7 18.9 16.4 72 3.2 NNE 26 30 14 16 1018.2 - 0.0
24/12:00pm 21.6 19.2 16.3 72 3.2 NE 24 28 13 15 1018.8 1018.9 0.0
24/11:30am 20.6 21.2 15.9 74 2.8 ENE 7 11 4 6 1019.5 - 0.0
24/11:00am 19.2 19.9 16.2 83 1.8 SSW 7 9 4 5 1020.1 - 0.0
24/10:30am 18.8 19.5 16.1 84 1.6 SSW 7 9 4 5 1020.4 - 0.0
24/10:00am 18.1 18.7 15.7 86 1.4 SSW 7 7 4 4 1020.7 - 0.0
24/09:30am 18.2 20.2 16.0 87 1.3 CALM 0 7 0 4 1020.9 - 0.0
24/09:00am 17.4 17.6 15.7 90 1.0 W 9 9 5 5 1021.2 1021.2 0.0
24/08:30am 16.9 18.0 15.5 91 0.8 NNW 4 9 2 5 1021.3 - 0.0
24/08:00am 17.0 18.8 15.5 91 0.9 CALM 0 0 0 0 1021.4 - 0.0
24/07:30am 17.0 17.5 15.6 91 0.8 N 7 9 4 5 1021.2 - 0.0
24/07:00am 15.8 15.7 14.0 89 1.0 N 7 7 4 4 1021.1 - 0.0
24/06:30am 15.3 14.6 14.4 94 0.5 WNW 11 13 6 7 1021.0 - 0.0
24/06:00am 15.1 13.6 14.2 94 0.5 WNW 15 17 8 9 1021.0 1021.0 0.0
24/05:30am 15.3 14.2 14.4 94 0.5 W 13 15 7 8 1021.1 - 0.0
24/05:00am 16.1 17.1 14.2 88 1.1 NW 2 11 1 6 1021.0 - 0.0
24/04:30am 15.6 15.7 14.4 93 0.7 NW 7 9 4 5 1020.9 - 0.0
24/04:00am 16.1 15.3 15.1 94 0.6 WNW 13 17 7 9 1021.0 - 0.0
24/03:30am 16.0 15.6 15.1 94 0.5 W 11 13 6 7 1021.1 - 0.0
24/03:00am 17.1 17.2 14.5 85 1.5 NW 7 9 4 5 1021.3 1021.3 0.0
24/02:30am 16.8 16.4 15.2 90 0.9 WNW 11 13 6 7 1021.6 - 0.0
24/02:00am 17.0 17.0 15.1 88 1.1 NW 9 9 5 5 1021.7 - 0.0
24/01:30am 17.2 16.8 15.3 88 1.1 NW 11 11 6 6 1022.0 - 0.0
24/01:00am 17.1 16.8 15.4 90 1.0 NW 11 13 6 7 1022.3 - 0.0
24/12:30am 17.4 17.1 15.5 89 1.1 WNW 11 13 6 7 1022.6 - 0.0
24/12:00am 17.6 17.3 15.5 87 1.2 WNW 11 13 6 7 1022.8 1022.8 0.0
 
Date/Time
EST
Temp
°C
App
Temp
°C
Dew
Point
°C
Rel
Hum
%
Delta-T
°C
Wind Press
QNH
hPa
Press
MSL
hPa
Rain since
9am
mm
Dir  Spd
km/h
Gust
km/h
Spd
kts
Gust
kts
23/11:30pm 17.6 17.4 15.7 89 1.1 WNW 11 13 6 7 1023.0 - 0.0
23/11:00pm 17.7 17.5 15.8 89 1.1 NW 11 15 6 8 1023.3 - 0.0
23/10:30pm 17.8 17.3 15.9 89 1.1 WNW 13 15 7 8 1023.3 - 0.0
23/10:00pm 17.8 17.7 16.1 90 1.0 NW 11 15 6 8 1023.6 - 0.0
23/09:30pm 17.8 17.7 16.1 90 1.0 NW 11 15 6 8 1023.7 - 0.0
23/09:00pm 17.8 17.4 16.1 90 1.0 WNW 13 15 7 8 1023.6 1023.6 0.0
23/08:30pm 18.0 17.6 16.3 90 1.0 WNW 13 15 7 8 1023.4 - 0.0
23/08:00pm 18.1 18.2 16.4 90 1.0 WNW 11 13 6 7 1023.3 - 0.0
23/07:30pm 19.1 19.2 16.6 85 1.5 SW 11 13 6 7 1023.1 - 0.0
23/07:00pm 19.3 19.1 16.8 85 1.5 SSW 13 17 7 9 1022.9 - 0.0
23/06:30pm 19.2 18.5 16.5 84 1.6 SSW 15 19 8 10 1022.7 - 0.0
23/06:00pm 19.2 18.6 16.7 85 1.5 SSW 15 17 8 9 1022.5 1022.5 0.0
23/05:30pm 19.3 19.1 16.6 84 1.6 SW 13 17 7 9 1022.4 - 0.0
23/05:00pm 19.4 18.8 16.6 84 1.7 SW 15 17 8 9 1022.2 - 0.0
23/04:30pm 19.5 18.5 16.5 83 1.8 SSW 17 19 9 10 1022.1 - 0.0
23/04:00pm 19.6 18.2 16.6 83 1.8 SSW 19 20 10 11 1022.1 - 0.0
23/03:30pm 19.5 17.5 16.5 83 1.8 SSW 22 26 12 14 1022.2 - 0.0
23/03:00pm 20.3 18.7 16.1 77 2.5 SSW 19 22 10 12 1022.0 1022.0 0.0
23/02:30pm 20.0 18.4 16.5 80 2.1 SSW 20 22 11 12 1021.9 - 0.0
23/02:00pm 19.8 18.2 16.1 79 2.2 SSW 19 20 10 11 1022.2 - 0.0
23/01:30pm 21.5 19.9 16.4 72 3.1 S 20 22 11 12 1022.5 - 0.0
23/01:00pm 21.5 20.7 16.2 72 3.2 SSW 15 19 8 10 1022.5 - 0.0
23/12:30pm 20.6 19.5 15.3 71 3.1 SW 15 17 8 9 1022.7 - 0.0
23/12:00pm 21.1 20.9 15.7 71 3.2 WSW 11 15 6 8 1023.1 1023.2 0.0
23/11:30am 20.1 19.7 15.2 73 2.9 SW 11 13 6 7 1023.5 - 0.0
23/11:00am 20.4 19.5 14.9 70 3.2 WSW 13 17 7 9 1023.8 - 0.0
23/10:30am 20.3 18.9 14.6 70 3.3 W 15 17 8 9 1023.9 - 0.0
23/10:00am 20.0 18.5 14.1 69 3.4 W 15 19 8 10 1024.0 - 0.0
23/09:30am 19.4 17.8 14.0 71 3.1 W 15 19 8 10 1024.3 - 0.0
23/09:00am 19.2 17.7 14.1 72 2.9 W 15 22 8 12 1024.4 1024.3 0.0
23/08:30am 18.2 16.6 14.0 76 2.4 WNW 15 19 8 10 1024.1 - 0.0
23/08:00am 17.2 15.5 13.6 79 2.0 WNW 15 20 8 11 1024.1 - 0.0
23/07:30am 16.8 14.8 13.8 82 1.7 NW 17 22 9 12 1023.8 - 0.0
23/07:00am 16.6 15.0 13.9 84 1.5 NW 15 20 8 11 1023.6 - 0.0
23/06:30am 16.5 14.9 13.8 84 1.5 WNW 15 20 8 11 1023.3 - 0.0
23/06:00am 16.3 14.9 14.4 88 1.1 WNW 15 17 8 9 1023.1 1023.1 0.0
23/05:30am 16.0 14.6 14.4 90 0.9 WNW 15 17 8 9 1023.1 - 0.0
23/05:00am 16.4 15.4 14.5 88 1.1 WNW 13 17 7 9 1022.7 - 0.0
23/04:30am 16.3 14.9 14.5 89 1.0 WNW 15 17 8 9 1022.4 - 0.0
23/04:00am 16.1 15.1 14.7 91 0.8 WNW 13 15 7 8 1022.3 - 0.0
23/03:30am 16.0 15.0 14.6 91 0.8 WNW 13 15 7 8 1022.1 - 0.0
23/03:00am 16.5 15.9 14.6 88 1.1 WNW 11 13 6 7 1022.2 1022.2 0.0
23/02:30am 16.9 15.8 14.4 85 1.4 NW 13 13 7 7 1022.5 - 0.0
23/02:00am 16.1 15.2 14.9 93 0.7 WNW 13 15 7 8 1022.7 - 0.0
23/01:30am 16.6 15.1 14.3 86 1.3 WNW 15 19 8 10 1022.8 - 0.0
23/01:00am 16.9 16.1 15.2 90 1.0 WNW 13 17 7 9 1022.7 - 0.0
23/12:30am 17.0 16.3 15.3 90 1.0 WNW 13 17 7 9 1022.8 - 0.0
23/12:00am 17.0 16.8 15.6 91 0.8 WNW 11 15 6 8 1023.1 1023.1 0.0
 
Date/Time
EST
Temp
°C
App
Temp
°C
Dew
Point
°C
Rel
Hum
%
Delta-T
°C
Wind Press
QNH
hPa
Press
MSL
hPa
Rain since
9am
mm
Dir  Spd
km/h
Gust
km/h
Spd
kts
Gust
kts
22/11:30pm 17.4 16.8 15.7 90 1.0 WNW 13 17 7 9 1023.1 - 0.0
22/11:00pm 17.4 16.4 15.7 90 1.0 WNW 15 19 8 10 1023.2 - 0.0

Other Formats:

Comma delimited format used in spreadsheet applications
http://www.bom.gov.au/fwo/IDN60801/IDN60801.94933.axf

JavaScript Object Notation format (JSON) in row-major order
http://www.bom.gov.au/fwo/IDN60801/IDN60801.94933.json